sensor_id;sensor_type;location;lat;lon;timestamp;temperature;humidity
40538;DHT22;27925;41.874;12.526;2023-03-17T00:03:41;11.00;42.00
40538;DHT22;27925;41.874;12.526;2023-03-17T00:06:20;11.00;41.60
40538;DHT22;27925;41.874;12.526;2023-03-17T00:08:48;11.10;41.60
40538;DHT22;27925;41.874;12.526;2023-03-17T00:11:16;11.00;41.40
40538;DHT22;27925;41.874;12.526;2023-03-17T00:13:43;11.00;41.70
40538;DHT22;27925;41.874;12.526;2023-03-17T00:16:15;11.00;41.70
40538;DHT22;27925;41.874;12.526;2023-03-17T00:18:41;11.00;41.70
40538;DHT22;27925;41.874;12.526;2023-03-17T00:21:15;11.00;41.70
40538;DHT22;27925;41.874;12.526;2023-03-17T00:23:44;11.00;42.30
40538;DHT22;27925;41.874;12.526;2023-03-17T00:26:11;10.90;41.80
40538;DHT22;27925;41.874;12.526;2023-03-17T00:28:37;11.00;42.10
40538;DHT22;27925;41.874;12.526;2023-03-17T00:31:20;11.00;42.20
40538;DHT22;27925;41.874;12.526;2023-03-17T00:33:47;11.00;42.60
40538;DHT22;27925;41.874;12.526;2023-03-17T00:36:19;11.00;42.20
40538;DHT22;27925;41.874;12.526;2023-03-17T00:38:47;11.00;42.10
40538;DHT22;27925;41.874;12.526;2023-03-17T00:41:13;11.00;42.20
40538;DHT22;27925;41.874;12.526;2023-03-17T00:43:39;10.90;42.00
40538;DHT22;27925;41.874;12.526;2023-03-17T00:46:13;10.90;41.80
40538;DHT22;27925;41.874;12.526;2023-03-17T00:48:42;10.90;41.90
40538;DHT22;27925;41.874;12.526;2023-03-17T00:51:08;10.80;42.10
40538;DHT22;27925;41.874;12.526;2023-03-17T00:53:34;10.80;42.10
40538;DHT22;27925;41.874;12.526;2023-03-17T00:56:00;10.80;42.10
40538;DHT22;27925;41.874;12.526;2023-03-17T00:58:28;10.80;41.80
40538;DHT22;27925;41.874;12.526;2023-03-17T01:00:55;10.80;41.60
40538;DHT22;27925;41.874;12.526;2023-03-17T01:03:21;10.80;41.80
40538;DHT22;27925;41.874;12.526;2023-03-17T01:05:48;10.70;41.40
40538;DHT22;27925;41.874;12.526;2023-03-17T01:08:14;10.70;41.50
40538;DHT22;27925;41.874;12.526;2023-03-17T01:10:41;10.70;41.90
40538;DHT22;27925;41.874;12.526;2023-03-17T01:13:07;10.60;42.00
40538;DHT22;27925;41.874;12.526;2023-03-17T01:15:36;10.50;41.80
40538;DHT22;27925;41.874;12.526;2023-03-17T01:18:03;10.50;41.80
40538;DHT22;27925;41.874;12.526;2023-03-17T01:20:32;10.50;42.10
40538;DHT22;27925;41.874;12.526;2023-03-17T01:22:59;10.40;41.90
40538;DHT22;27925;41.874;12.526;2023-03-17T01:25:27;10.40;42.00
40538;DHT22;27925;41.874;12.526;2023-03-17T01:27:54;10.30;42.40
40538;DHT22;27925;41.874;12.526;2023-03-17T01:30:32;10.30;42.30
40538;DHT22;27925;41.874;12.526;2023-03-17T01:32:58;10.20;42.30
40538;DHT22;27925;41.874;12.526;2023-03-17T01:35:25;10.20;42.20
40538;DHT22;27925;41.874;12.526;2023-03-17T01:37:52;10.20;42.80
40538;DHT22;27925;41.874;12.526;2023-03-17T01:40:28;10.10;42.80
40538;DHT22;27925;41.874;12.526;2023-03-17T01:43:02;10.20;42.80
40538;DHT22;27925;41.874;12.526;2023-03-17T01:48:39;10.20;43.90
40538;DHT22;27925;41.874;12.526;2023-03-17T01:51:09;10.10;43.40
40538;DHT22;27925;41.874;12.526;2023-03-17T01:53:36;10.10;41.60
40538;DHT22;27925;41.874;12.526;2023-03-17T01:56:03;10.10;41.40
40538;DHT22;27925;41.874;12.526;2023-03-17T01:58:30;10.20;41.90
40538;DHT22;27925;41.874;12.526;2023-03-17T02:00:56;10.10;41.30
40538;DHT22;27925;41.874;12.526;2023-03-17T02:03:23;10.10;41.50
40538;DHT22;27925;41.874;12.526;2023-03-17T02:05:50;10.10;41.40
40538;DHT22;27925;41.874;12.526;2023-03-17T02:08:17;10.20;41.30
40538;DHT22;27925;41.874;12.526;2023-03-17T02:10:44;10.20;41.60
40538;DHT22;27925;41.874;12.526;2023-03-17T02:13:12;10.20;41.50
40538;DHT22;27925;41.874;12.526;2023-03-17T02:15:46;10.20;41.60
40538;DHT22;27925;41.874;12.526;2023-03-17T02:18:14;10.20;41.50
40538;DHT22;27925;41.874;12.526;2023-03-17T02:23:19;10.20;41.80
40538;DHT22;27925;41.874;12.526;2023-03-17T02:25:50;10.10;41.50
40538;DHT22;27925;41.874;12.526;2023-03-17T02:28:22;10.10;41.70
40538;DHT22;27925;41.874;12.526;2023-03-17T02:30:49;10.10;41.70
40538;DHT22;27925;41.874;12.526;2023-03-17T02:33:14;10.10;42.40
40538;DHT22;27925;41.874;12.526;2023-03-17T02:35:40;10.10;42.20
40538;DHT22;27925;41.874;12.526;2023-03-17T02:38:06;10.10;42.00
40538;DHT22;27925;41.874;12.526;2023-03-17T02:40:32;10.00;42.40
40538;DHT22;27925;41.874;12.526;2023-03-17T02:42:58;10.00;42.10
40538;DHT22;27925;41.874;12.526;2023-03-17T02:45:24;9.90;43.50
40538;DHT22;27925;41.874;12.526;2023-03-17T02:47:50;9.90;43.40
40538;DHT22;27925;41.874;12.526;2023-03-17T02:50:20;9.80;43.40
40538;DHT22;27925;41.874;12.526;2023-03-17T02:52:46;9.90;43.80
40538;DHT22;27925;41.874;12.526;2023-03-17T02:55:12;9.90;43.70
40538;DHT22;27925;41.874;12.526;2023-03-17T02:57:38;9.90;43.40
40538;DHT22;27925;41.874;12.526;2023-03-17T03:00:05;9.90;43.80
40538;DHT22;27925;41.874;12.526;2023-03-17T03:02:30;9.90;44.40
40538;DHT22;27925;41.874;12.526;2023-03-17T03:04:56;9.80;43.80
40538;DHT22;27925;41.874;12.526;2023-03-17T03:07:22;9.80;43.90
40538;DHT22;27925;41.874;12.526;2023-03-17T03:09:48;9.80;44.10
40538;DHT22;27925;41.874;12.526;2023-03-17T03:12:13;9.70;44.00
40538;DHT22;27925;41.874;12.526;2023-03-17T03:14:39;9.70;43.90
40538;DHT22;27925;41.874;12.526;2023-03-17T03:17:05;9.60;44.10
40538;DHT22;27925;41.874;12.526;2023-03-17T03:19:31;9.60;44.30
40538;DHT22;27925;41.874;12.526;2023-03-17T03:21:56;9.60;44.50
40538;DHT22;27925;41.874;12.526;2023-03-17T03:24:22;9.60;44.50
40538;DHT22;27925;41.874;12.526;2023-03-17T03:26:48;9.50;44.50
40538;DHT22;27925;41.874;12.526;2023-03-17T03:29:14;9.50;44.60
40538;DHT22;27925;41.874;12.526;2023-03-17T03:31:41;9.50;45.00
40538;DHT22;27925;41.874;12.526;2023-03-17T03:34:06;9.40;45.30
40538;DHT22;27925;41.874;12.526;2023-03-17T03:36:32;9.30;45.80
40538;DHT22;27925;41.874;12.526;2023-03-17T03:38:58;9.30;45.50
40538;DHT22;27925;41.874;12.526;2023-03-17T03:41:25;9.30;45.70
40538;DHT22;27925;41.874;12.526;2023-03-17T03:43:51;9.30;45.80
40538;DHT22;27925;41.874;12.526;2023-03-17T03:46:17;9.40;45.60
40538;DHT22;27925;41.874;12.526;2023-03-17T03:48:43;9.40;45.60
40538;DHT22;27925;41.874;12.526;2023-03-17T03:51:08;9.30;45.20
40538;DHT22;27925;41.874;12.526;2023-03-17T03:53:34;9.30;45.40
40538;DHT22;27925;41.874;12.526;2023-03-17T03:56:00;9.30;45.20
40538;DHT22;27925;41.874;12.526;2023-03-17T03:58:27;9.30;45.10
40538;DHT22;27925;41.874;12.526;2023-03-17T04:00:52;9.20;45.30
40538;DHT22;27925;41.874;12.526;2023-03-17T04:03:18;9.20;45.20
40538;DHT22;27925;41.874;12.526;2023-03-17T04:05:44;9.20;44.80
40538;DHT22;27925;41.874;12.526;2023-03-17T04:08:10;9.20;45.10
40538;DHT22;27925;41.874;12.526;2023-03-17T04:10:36;9.20;44.70
40538;DHT22;27925;41.874;12.526;2023-03-17T04:13:02;9.20;44.60
40538;DHT22;27925;41.874;12.526;2023-03-17T04:15:27;9.20;45.60
40538;DHT22;27925;41.874;12.526;2023-03-17T04:17:53;9.10;45.40
40538;DHT22;27925;41.874;12.526;2023-03-17T04:20:20;9.00;45.20
40538;DHT22;27925;41.874;12.526;2023-03-17T04:22:46;9.00;45.20
40538;DHT22;27925;41.874;12.526;2023-03-17T04:25:13;9.10;45.10
40538;DHT22;27925;41.874;12.526;2023-03-17T04:27:40;9.00;44.60
40538;DHT22;27925;41.874;12.526;2023-03-17T04:30:07;9.00;45.40
40538;DHT22;27925;41.874;12.526;2023-03-17T04:32:35;8.90;45.00
40538;DHT22;27925;41.874;12.526;2023-03-17T04:35:01;8.90;44.70
40538;DHT22;27925;41.874;12.526;2023-03-17T04:37:26;8.80;44.80
40538;DHT22;27925;41.874;12.526;2023-03-17T04:39:52;8.80;44.80
40538;DHT22;27925;41.874;12.526;2023-03-17T04:42:19;8.80;44.80
40538;DHT22;27925;41.874;12.526;2023-03-17T04:44:45;8.80;44.40
40538;DHT22;27925;41.874;12.526;2023-03-17T04:47:11;8.80;44.80
40538;DHT22;27925;41.874;12.526;2023-03-17T04:49:36;8.80;44.80
40538;DHT22;27925;41.874;12.526;2023-03-17T04:52:02;8.90;44.80
40538;DHT22;27925;41.874;12.526;2023-03-17T04:54:28;8.90;44.50
40538;DHT22;27925;41.874;12.526;2023-03-17T04:56:54;8.90;44.60
40538;DHT22;27925;41.874;12.526;2023-03-17T04:59:20;8.90;44.70
40538;DHT22;27925;41.874;12.526;2023-03-17T05:01:46;8.90;44.50
40538;DHT22;27925;41.874;12.526;2023-03-17T05:04:12;8.90;44.80
40538;DHT22;27925;41.874;12.526;2023-03-17T05:06:38;8.80;44.40
40538;DHT22;27925;41.874;12.526;2023-03-17T05:09:04;8.80;44.00
40538;DHT22;27925;41.874;12.526;2023-03-17T05:11:29;8.90;43.90
40538;DHT22;27925;41.874;12.526;2023-03-17T05:13:56;8.80;43.90
40538;DHT22;27925;41.874;12.526;2023-03-17T05:16:22;8.80;44.40
40538;DHT22;27925;41.874;12.526;2023-03-17T05:18:48;8.80;44.20
40538;DHT22;27925;41.874;12.526;2023-03-17T05:21:14;8.80;44.20
40538;DHT22;27925;41.874;12.526;2023-03-17T05:23:40;8.70;43.90
40538;DHT22;27925;41.874;12.526;2023-03-17T05:26:06;8.70;44.50
40538;DHT22;27925;41.874;12.526;2023-03-17T05:28:32;8.70;44.70
40538;DHT22;27925;41.874;12.526;2023-03-17T05:30:58;8.80;44.60
40538;DHT22;27925;41.874;12.526;2023-03-17T05:33:24;8.80;44.40
40538;DHT22;27925;41.874;12.526;2023-03-17T05:35:50;8.80;44.40
40538;DHT22;27925;41.874;12.526;2023-03-17T05:38:16;8.80;44.80
40538;DHT22;27925;41.874;12.526;2023-03-17T05:40:42;8.80;44.20
40538;DHT22;27925;41.874;12.526;2023-03-17T05:43:09;8.70;44.40
40538;DHT22;27925;41.874;12.526;2023-03-17T05:45:35;8.80;44.40
40538;DHT22;27925;41.874;12.526;2023-03-17T05:48:00;8.90;44.40
40538;DHT22;27925;41.874;12.526;2023-03-17T05:50:27;8.80;43.90
40538;DHT22;27925;41.874;12.526;2023-03-17T05:52:52;8.80;44.50
40538;DHT22;27925;41.874;12.526;2023-03-17T05:55:18;8.80;44.70
40538;DHT22;27925;41.874;12.526;2023-03-17T05:57:44;8.70;44.60
40538;DHT22;27925;41.874;12.526;2023-03-17T06:00:12;8.70;44.80
40538;DHT22;27925;41.874;12.526;2023-03-17T22:35:18;12.60;63.20
40538;DHT22;27925;41.874;12.526;2023-03-17T22:37:45;12.60;62.70
40538;DHT22;27925;41.874;12.526;2023-03-17T22:40:12;12.60;62.50
40538;DHT22;27925;41.874;12.526;2023-03-17T22:42:37;12.60;62.90
40538;DHT22;27925;41.874;12.526;2023-03-17T22:45:03;12.60;62.80
40538;DHT22;27925;41.874;12.526;2023-03-17T22:47:29;12.60;63.40
40538;DHT22;27925;41.874;12.526;2023-03-17T22:49:55;12.60;63.00
40538;DHT22;27925;41.874;12.526;2023-03-17T22:52:20;12.50;63.40
40538;DHT22;27925;41.874;12.526;2023-03-17T22:54:46;12.50;63.40
40538;DHT22;27925;41.874;12.526;2023-03-17T22:57:12;12.50;63.20
40538;DHT22;27925;41.874;12.526;2023-03-17T22:59:37;12.50;63.40
40538;DHT22;27925;41.874;12.526;2023-03-17T23:02:03;12.40;63.40
40538;DHT22;27925;41.874;12.526;2023-03-17T23:04:29;12.40;63.50
40538;DHT22;27925;41.874;12.526;2023-03-17T23:06:55;12.40;63.80
40538;DHT22;27925;41.874;12.526;2023-03-17T23:09:23;12.40;63.70
40538;DHT22;27925;41.874;12.526;2023-03-17T23:11:49;12.50;63.90
40538;DHT22;27925;41.874;12.526;2023-03-17T23:14:14;12.50;64.30
40538;DHT22;27925;41.874;12.526;2023-03-17T23:16:40;12.40;64.20
40538;DHT22;27925;41.874;12.526;2023-03-17T23:19:07;12.50;64.00
40538;DHT22;27925;41.874;12.526;2023-03-17T23:21:35;12.40;63.90
40538;DHT22;27925;41.874;12.526;2023-03-17T23:24:02;12.40;63.80
40538;DHT22;27925;41.874;12.526;2023-03-17T23:26:28;12.40;63.80
40538;DHT22;27925;41.874;12.526;2023-03-17T23:28:54;12.40;64.00
40538;DHT22;27925;41.874;12.526;2023-03-17T23:31:21;12.40;63.80
40538;DHT22;27925;41.874;12.526;2023-03-17T23:33:47;12.30;64.20
40538;DHT22;27925;41.874;12.526;2023-03-17T23:36:15;12.30;64.30
40538;DHT22;27925;41.874;12.526;2023-03-17T23:38:42;12.30;64.40
40538;DHT22;27925;41.874;12.526;2023-03-17T23:41:09;12.20;64.30
40538;DHT22;27925;41.874;12.526;2023-03-17T23:43:34;12.10;64.20
40538;DHT22;27925;41.874;12.526;2023-03-17T23:46:00;12.00;64.60
40538;DHT22;27925;41.874;12.526;2023-03-17T23:48:26;11.90;64.90
40538;DHT22;27925;41.874;12.526;2023-03-17T23:50:53;11.80;65.00
40538;DHT22;27925;41.874;12.526;2023-03-17T23:53:20;11.70;65.10
40538;DHT22;27925;41.874;12.526;2023-03-17T23:55:46;11.70;65.60
40538;DHT22;27925;41.874;12.526;2023-03-17T23:58:13;11.70;65.60
